Alpine, Utah
Current Conditions -  °F | °C
As of 3:15 AM on Saturday 25 Oct 2014 (Local Time) from KPVU Reporting Station
Clear Clear  
Wind Chill: 52°   Ceiling: Unl
Heat Index: 52°   Visibility: 10mi
Dew Point: 30°   Wind: 8mph
Humidity: 44%   Direction: 140°SE
Pressure: 30.15"   Gusts: NA
Location:  40.45°N, 111.78°W
Report Text: KPVU 250915Z AUTO 14007KT 10SM CLR 11/M01 A3015 RMK AO1
Loading
Personal Weather Stations






























Interactive Weather Map
Tropical Storm Tracking
New forecast layout! Learn more

10-Day Weather Forecast

Advertisements
Track Severe Weather on mobile